sensor_id;sensor_type;location;lat;lon;timestamp;P1;durP1;ratioP1;P2;durP2;ratioP2
19434;SDS011;9853;50.848;4.108;2023-01-29T00:05:33;46.13;;;21.60;;
19434;SDS011;9853;50.848;4.108;2023-01-29T00:12:04;40.73;;;20.50;;
19434;SDS011;9853;50.848;4.108;2023-01-29T00:21:13;46.80;;;21.07;;
19434;SDS011;9853;50.848;4.108;2023-01-29T00:23:54;40.17;;;20.83;;
19434;SDS011;9853;50.848;4.108;2023-01-29T00:26:52;43.07;;;20.90;;
19434;SDS011;9853;50.848;4.108;2023-01-29T00:32:47;42.83;;;22.33;;
19434;SDS011;9853;50.848;4.108;2023-01-29T00:35:42;48.17;;;22.33;;
19434;SDS011;9853;50.848;4.108;2023-01-29T00:38:24;45.17;;;22.53;;
19434;SDS011;9853;50.848;4.108;2023-01-29T00:40:40;46.23;;;23.07;;
19434;SDS011;9853;50.848;4.108;2023-01-29T00:43:28;47.60;;;22.00;;
19434;SDS011;9853;50.848;4.108;2023-01-29T00:45:52;47.77;;;23.73;;
19434;SDS011;9853;50.848;4.108;2023-01-29T00:48:20;46.50;;;22.50;;
19434;SDS011;9853;50.848;4.108;2023-01-29T00:50:28;46.20;;;23.10;;
19434;SDS011;9853;50.848;4.108;2023-01-29T00:52:49;47.63;;;22.57;;
19434;SDS011;9853;50.848;4.108;2023-01-29T00:54:58;47.10;;;22.80;;
19434;SDS011;9853;50.848;4.108;2023-01-29T00:57:06;43.10;;;23.03;;
19434;SDS011;9853;50.848;4.108;2023-01-29T00:59:12;48.73;;;24.83;;
19434;SDS011;9853;50.848;4.108;2023-01-29T01:01:15;46.70;;;22.77;;
19434;SDS011;9853;50.848;4.108;2023-01-29T01:03:39;47.27;;;22.83;;
19434;SDS011;9853;50.848;4.108;2023-01-29T01:05:41;44.97;;;23.60;;
19434;SDS011;9853;50.848;4.108;2023-01-29T01:07:48;49.47;;;23.63;;
19434;SDS011;9853;50.848;4.108;2023-01-29T01:09:53;48.90;;;24.37;;
19434;SDS011;9853;50.848;4.108;2023-01-29T01:12:13;46.23;;;22.97;;
19434;SDS011;9853;50.848;4.108;2023-01-29T01:14:14;54.97;;;25.60;;
19434;SDS011;9853;50.848;4.108;2023-01-29T01:16:20;49.57;;;24.07;;
19434;SDS011;9853;50.848;4.108;2023-01-29T01:18:21;53.00;;;25.63;;
19434;SDS011;9853;50.848;4.108;2023-01-29T01:20:23;53.97;;;25.23;;
19434;SDS011;9853;50.848;4.108;2023-01-29T01:22:29;54.73;;;25.30;;
19434;SDS011;9853;50.848;4.108;2023-01-29T01:24:31;47.10;;;22.67;;
19434;SDS011;9853;50.848;4.108;2023-01-29T01:26:33;49.57;;;24.83;;
19434;SDS011;9853;50.848;4.108;2023-01-29T01:28:36;52.90;;;26.43;;
19434;SDS011;9853;50.848;4.108;2023-01-29T01:30:39;53.77;;;26.20;;
19434;SDS011;9853;50.848;4.108;2023-01-29T01:32:41;50.47;;;24.70;;
19434;SDS011;9853;50.848;4.108;2023-01-29T01:34:42;52.50;;;25.60;;
19434;SDS011;9853;50.848;4.108;2023-01-29T01:36:52;50.80;;;24.17;;
19434;SDS011;9853;50.848;4.108;2023-01-29T01:38:57;55.40;;;25.40;;
19434;SDS011;9853;50.848;4.108;2023-01-29T01:40:58;56.30;;;25.80;;
19434;SDS011;9853;50.848;4.108;2023-01-29T01:43:02;54.07;;;25.23;;
19434;SDS011;9853;50.848;4.108;2023-01-29T01:45:13;54.63;;;25.53;;
19434;SDS011;9853;50.848;4.108;2023-01-29T01:47:32;53.43;;;25.67;;
19434;SDS011;9853;50.848;4.108;2023-01-29T01:50:05;52.50;;;25.00;;
19434;SDS011;9853;50.848;4.108;2023-01-29T01:52:20;50.07;;;24.07;;
19434;SDS011;9853;50.848;4.108;2023-01-29T01:54:23;61.53;;;25.87;;
19434;SDS011;9853;50.848;4.108;2023-01-29T01:56:32;57.47;;;25.70;;
19434;SDS011;9853;50.848;4.108;2023-01-29T01:58:45;55.57;;;26.33;;
19434;SDS011;9853;50.848;4.108;2023-01-29T02:00:55;53.63;;;25.90;;
19434;SDS011;9853;50.848;4.108;2023-01-29T02:02:56;54.90;;;26.70;;
19434;SDS011;9853;50.848;4.108;2023-01-29T02:05:17;49.47;;;24.53;;
19434;SDS011;9853;50.848;4.108;2023-01-29T02:07:40;56.83;;;25.53;;
19434;SDS011;9853;50.848;4.108;2023-01-29T02:10:26;47.20;;;23.77;;
19434;SDS011;9853;50.848;4.108;2023-01-29T02:12:29;54.07;;;25.87;;
19434;SDS011;9853;50.848;4.108;2023-01-29T02:14:32;52.90;;;24.37;;
19434;SDS011;9853;50.848;4.108;2023-01-29T02:16:38;54.43;;;25.67;;
19434;SDS011;9853;50.848;4.108;2023-01-29T02:18:38;53.97;;;24.93;;
19434;SDS011;9853;50.848;4.108;2023-01-29T02:20:40;57.53;;;26.43;;
19434;SDS011;9853;50.848;4.108;2023-01-29T02:23:23;52.23;;;24.67;;
19434;SDS011;9853;50.848;4.108;2023-01-29T02:25:46;49.20;;;23.67;;
19434;SDS011;9853;50.848;4.108;2023-01-29T02:28:14;58.23;;;26.07;;
19434;SDS011;9853;50.848;4.108;2023-01-29T02:30:24;57.77;;;25.47;;
19434;SDS011;9853;50.848;4.108;2023-01-29T02:32:41;54.50;;;25.23;;
19434;SDS011;9853;50.848;4.108;2023-01-29T02:37:40;60.57;;;24.90;;
19434;SDS011;9853;50.848;4.108;2023-01-29T02:40:08;62.23;;;24.67;;
19434;SDS011;9853;50.848;4.108;2023-01-29T02:45:09;50.97;;;23.57;;
19434;SDS011;9853;50.848;4.108;2023-01-29T02:52:01;56.93;;;26.20;;
19434;SDS011;9853;50.848;4.108;2023-01-29T02:54:19;51.90;;;24.83;;
19434;SDS011;9853;50.848;4.108;2023-01-29T02:56:28;58.17;;;26.03;;
19434;SDS011;9853;50.848;4.108;2023-01-29T02:58:59;59.40;;;27.03;;
19434;SDS011;9853;50.848;4.108;2023-01-29T03:01:12;57.40;;;27.07;;
19434;SDS011;9853;50.848;4.108;2023-01-29T03:03:32;58.17;;;25.97;;
19434;SDS011;9853;50.848;4.108;2023-01-29T03:05:42;56.97;;;27.37;;
19434;SDS011;9853;50.848;4.108;2023-01-29T03:08:30;59.13;;;28.37;;
19434;SDS011;9853;50.848;4.108;2023-01-29T03:10:54;56.70;;;26.83;;
19434;SDS011;9853;50.848;4.108;2023-01-29T03:15:22;64.43;;;28.30;;
19434;SDS011;9853;50.848;4.108;2023-01-29T03:17:57;62.93;;;27.73;;
19434;SDS011;9853;50.848;4.108;2023-01-29T03:20:15;59.10;;;27.77;;
19434;SDS011;9853;50.848;4.108;2023-01-29T03:22:25;67.07;;;31.50;;
19434;SDS011;9853;50.848;4.108;2023-01-29T03:24:46;69.27;;;30.10;;
19434;SDS011;9853;50.848;4.108;2023-01-29T03:27:12;67.97;;;28.93;;
19434;SDS011;9853;50.848;4.108;2023-01-29T03:29:59;60.17;;;27.67;;
19434;SDS011;9853;50.848;4.108;2023-01-29T03:32:27;52.50;;;24.77;;
19434;SDS011;9853;50.848;4.108;2023-01-29T03:34:42;56.33;;;25.93;;
19434;SDS011;9853;50.848;4.108;2023-01-29T03:36:56;54.43;;;26.30;;
19434;SDS011;9853;50.848;4.108;2023-01-29T03:39:00;60.43;;;26.73;;
19434;SDS011;9853;50.848;4.108;2023-01-29T03:41:08;57.20;;;27.80;;
19434;SDS011;9853;50.848;4.108;2023-01-29T03:46:17;65.77;;;30.07;;
19434;SDS011;9853;50.848;4.108;2023-01-29T03:48:43;67.93;;;31.27;;
19434;SDS011;9853;50.848;4.108;2023-01-29T03:50:53;66.20;;;29.73;;
19434;SDS011;9853;50.848;4.108;2023-01-29T03:56:00;60.00;;;26.87;;
19434;SDS011;9853;50.848;4.108;2023-01-29T04:00:59;55.97;;;24.73;;
19434;SDS011;9853;50.848;4.108;2023-01-29T04:03:15;54.27;;;24.73;;
19434;SDS011;9853;50.848;4.108;2023-01-29T04:05:36;52.00;;;24.30;;
19434;SDS011;9853;50.848;4.108;2023-01-29T04:07:56;54.70;;;25.10;;
19434;SDS011;9853;50.848;4.108;2023-01-29T04:10:17;56.40;;;25.60;;
19434;SDS011;9853;50.848;4.108;2023-01-29T04:13:04;54.33;;;25.23;;
19434;SDS011;9853;50.848;4.108;2023-01-29T04:15:10;54.77;;;25.67;;
19434;SDS011;9853;50.848;4.108;2023-01-29T04:17:23;54.53;;;24.60;;
19434;SDS011;9853;50.848;4.108;2023-01-29T04:19:58;59.80;;;25.30;;
19434;SDS011;9853;50.848;4.108;2023-01-29T04:22:12;55.30;;;24.43;;
19434;SDS011;9853;50.848;4.108;2023-01-29T04:24:20;58.73;;;25.73;;
19434;SDS011;9853;50.848;4.108;2023-01-29T04:31:51;56.40;;;25.40;;
19434;SDS011;9853;50.848;4.108;2023-01-29T04:34:17;53.07;;;25.63;;
19434;SDS011;9853;50.848;4.108;2023-01-29T04:39:19;54.50;;;25.60;;
19434;SDS011;9853;50.848;4.108;2023-01-29T04:41:32;53.17;;;25.33;;
19434;SDS011;9853;50.848;4.108;2023-01-29T04:43:58;57.00;;;25.13;;
19434;SDS011;9853;50.848;4.108;2023-01-29T05:00:43;54.13;;;25.63;;
19434;SDS011;9853;50.848;4.108;2023-01-29T05:02:54;56.13;;;25.97;;
19434;SDS011;9853;50.848;4.108;2023-01-29T05:05:08;56.00;;;25.33;;
19434;SDS011;9853;50.848;4.108;2023-01-29T05:07:12;55.27;;;25.43;;
19434;SDS011;9853;50.848;4.108;2023-01-29T05:09:37;52.63;;;24.03;;
19434;SDS011;9853;50.848;4.108;2023-01-29T05:12:09;48.47;;;23.30;;
19434;SDS011;9853;50.848;4.108;2023-01-29T05:14:12;52.40;;;24.17;;
19434;SDS011;9853;50.848;4.108;2023-01-29T05:17:22;51.30;;;24.40;;
19434;SDS011;9853;50.848;4.108;2023-01-29T05:19:45;51.80;;;23.73;;
19434;SDS011;9853;50.848;4.108;2023-01-29T05:25:08;52.67;;;25.43;;
19434;SDS011;9853;50.848;4.108;2023-01-29T05:27:53;53.30;;;23.53;;
19434;SDS011;9853;50.848;4.108;2023-01-29T05:30:18;49.00;;;24.83;;
19434;SDS011;9853;50.848;4.108;2023-01-29T05:32:43;58.43;;;25.20;;
19434;SDS011;9853;50.848;4.108;2023-01-29T05:34:56;52.00;;;24.40;;
19434;SDS011;9853;50.848;4.108;2023-01-29T05:37:23;55.20;;;24.87;;
19434;SDS011;9853;50.848;4.108;2023-01-29T05:39:58;59.27;;;25.87;;
19434;SDS011;9853;50.848;4.108;2023-01-29T05:42:06;51.70;;;24.13;;
19434;SDS011;9853;50.848;4.108;2023-01-29T05:44:43;54.57;;;25.40;;
19434;SDS011;9853;50.848;4.108;2023-01-29T05:47:00;56.90;;;25.83;;
19434;SDS011;9853;50.848;4.108;2023-01-29T05:54:49;56.80;;;25.33;;
19434;SDS011;9853;50.848;4.108;2023-01-29T05:59:54;59.00;;;27.07;;
19434;SDS011;9853;50.848;4.108;2023-01-29T06:02:54;62.13;;;25.87;;
19434;SDS011;9853;50.848;4.108;2023-01-29T13:45:51;28.17;;;14.70;;
